createdAt,value
2019-03-29T00:02:49.153Z,7.60
2019-03-29T00:06:54.424Z,7.70
2019-03-29T00:10:59.774Z,7.70
2019-03-29T00:15:07.928Z,7.70
2019-03-29T00:19:13.274Z,7.70
2019-03-29T00:23:18.562Z,7.70
2019-03-29T00:27:24.898Z,7.70
2019-03-29T00:31:30.177Z,7.70
2019-03-29T00:35:35.481Z,7.60
2019-03-29T00:39:41.019Z,7.70
2019-03-29T00:43:46.247Z,7.70
2019-03-29T00:47:51.577Z,7.70
2019-03-29T00:51:56.870Z,7.70
2019-03-29T00:56:02.159Z,7.70
2019-03-29T01:00:08.086Z,7.70
2019-03-29T01:04:13.366Z,7.80
2019-03-29T01:08:19.006Z,7.80
2019-03-29T01:12:24.271Z,7.80
2019-03-29T01:16:29.592Z,7.80
2019-03-29T01:20:34.877Z,7.80
2019-03-29T01:24:40.162Z,7.80
2019-03-29T01:28:45.441Z,7.80
2019-03-29T01:32:50.703Z,7.80
2019-03-29T01:36:55.993Z,7.70
2019-03-29T01:41:01.357Z,7.70
2019-03-29T01:45:09.988Z,7.70
2019-03-29T01:49:15.887Z,7.70
2019-03-29T01:53:21.342Z,7.70
2019-03-29T01:57:26.622Z,7.60
2019-03-29T02:01:31.903Z,7.60
2019-03-29T02:05:37.273Z,7.60
2019-03-29T02:09:43.541Z,7.60
2019-03-29T02:13:48.820Z,7.60
2019-03-29T02:17:54.094Z,7.60
2019-03-29T02:21:59.383Z,7.60
2019-03-29T02:26:04.663Z,7.60
2019-03-29T02:30:11.479Z,7.60
2019-03-29T02:34:16.758Z,7.60
2019-03-29T02:38:23.524Z,7.50
2019-03-29T02:42:30.066Z,7.50
2019-03-29T02:46:35.342Z,7.50
2019-03-29T02:50:40.682Z,7.50
2019-03-29T02:54:46.003Z,7.60
2019-03-29T02:58:51.334Z,7.70
2019-03-29T03:02:56.616Z,7.70
2019-03-29T03:07:01.895Z,7.70
2019-03-29T03:11:07.175Z,7.60
2019-03-29T03:15:12.895Z,7.60
2019-03-29T03:19:18.170Z,7.50
2019-03-29T03:23:23.480Z,7.50
2019-03-29T03:27:28.703Z,7.50
2019-03-29T03:31:33.994Z,7.50
2019-03-29T03:35:39.282Z,7.50
2019-03-29T03:39:44.568Z,7.40
2019-03-29T03:43:49.831Z,7.40
2019-03-29T03:47:55.111Z,7.40
2019-03-29T03:52:00.758Z,7.40
2019-03-29T03:56:07.383Z,7.40
2019-03-29T04:00:12.741Z,7.40
2019-03-29T04:04:18.004Z,7.50
2019-03-29T04:08:23.430Z,7.50
2019-03-29T04:12:29.672Z,7.40
2019-03-29T04:16:36.018Z,7.50
2019-03-29T04:20:41.313Z,7.40
2019-03-29T04:24:46.612Z,7.40
2019-03-29T04:29:04.181Z,7.40
2019-03-29T04:32:58.819Z,7.40
2019-03-29T04:37:04.163Z,7.40
2019-03-29T04:41:09.632Z,7.40
2019-03-29T04:45:14.906Z,7.30
2019-03-29T04:49:20.179Z,7.40
2019-03-29T04:53:25.466Z,7.40
2019-03-29T04:57:30.749Z,7.30
2019-03-29T05:01:36.037Z,7.40
2019-03-29T05:05:41.313Z,7.30
2019-03-29T05:09:47.547Z,7.30
2019-03-29T05:13:53.305Z,7.30
2019-03-29T05:17:58.580Z,7.30
2019-03-29T05:22:03.854Z,7.30
2019-03-29T05:26:09.137Z,7.40
2019-03-29T05:30:15.053Z,7.40
2019-03-29T05:34:20.329Z,7.40
2019-03-29T05:38:25.613Z,7.50
2019-03-29T05:42:30.907Z,7.60
2019-03-29T05:46:36.191Z,7.70
2019-03-29T05:50:41.468Z,7.80
2019-03-29T05:54:46.801Z,7.80
2019-03-29T05:58:52.189Z,8.00
2019-03-29T06:02:57.467Z,8.10
2019-03-29T06:07:02.789Z,8.30
2019-03-29T06:11:08.137Z,8.70
2019-03-29T06:15:13.603Z,8.90
2019-03-29T06:19:18.905Z,9.20
2019-03-29T06:23:24.222Z,9.40
2019-03-29T06:27:31.754Z,9.60
2019-03-29T06:31:37.870Z,9.60
2019-03-29T06:35:47.930Z,9.70
2019-03-29T06:39:54.130Z,9.80
2019-03-29T06:43:59.506Z,10.10
2019-03-29T06:48:04.893Z,10.20
2019-03-29T06:52:10.157Z,10.50
2019-03-29T06:56:15.510Z,10.80
2019-03-29T07:00:20.790Z,10.90
2019-03-29T07:04:26.069Z,11.10
2019-03-29T07:08:31.360Z,11.20
2019-03-29T07:12:36.757Z,11.20
2019-03-29T07:16:44.847Z,11.30
2019-03-29T07:20:50.119Z,11.40
2019-03-29T07:24:55.402Z,11.70
2019-03-29T07:29:00.685Z,11.80
2019-03-29T07:33:06.047Z,12.00
2019-03-29T07:37:11.329Z,12.50
2019-03-29T07:41:30.648Z,13.00
2019-03-29T07:45:23.629Z,13.40
2019-03-29T07:49:28.957Z,13.40
2019-03-29T07:53:34.349Z,13.50
2019-03-29T07:57:40.194Z,13.80
2019-03-29T08:01:45.510Z,14.10
2019-03-29T08:05:51.705Z,14.40
2019-03-29T08:09:58.058Z,14.50
2019-03-29T08:14:04.043Z,14.80
2019-03-29T08:18:09.513Z,15.20
2019-03-29T08:22:14.931Z,15.10
2019-03-29T08:26:20.177Z,15.60
2019-03-29T08:30:25.500Z,16.30
2019-03-29T08:34:30.805Z,16.20
2019-03-29T08:38:36.077Z,16.40
2019-03-29T08:42:41.350Z,16.30
2019-03-29T08:46:46.613Z,16.40
2019-03-29T08:50:51.918Z,16.50
2019-03-29T08:54:57.203Z,16.60
2019-03-29T08:59:02.494Z,16.40
2019-03-29T09:03:07.836Z,16.20
2019-03-29T09:07:13.119Z,15.50
2019-03-29T09:11:18.462Z,15.60
2019-03-29T09:15:23.796Z,16.10
2019-03-29T09:19:29.097Z,17.10
2019-03-29T09:23:34.369Z,17.50
2019-03-29T09:27:39.653Z,18.10
2019-03-29T09:31:44.885Z,18.20
2019-03-29T09:35:50.160Z,17.20
2019-03-29T09:39:55.456Z,16.20
2019-03-29T09:44:01.093Z,15.90
2019-03-29T09:48:06.562Z,15.40
2019-03-29T09:52:12.064Z,15.00
2019-03-29T09:56:17.394Z,14.70
2019-03-29T10:00:23.662Z,15.00
2019-03-29T10:04:29.130Z,14.50
2019-03-29T10:08:34.442Z,14.90
2019-03-29T10:12:43.795Z,15.50
2019-03-29T10:16:46.638Z,16.30
2019-03-29T10:20:52.727Z,16.70
2019-03-29T10:25:01.896Z,17.90
2019-03-29T10:29:05.821Z,18.70
2019-03-29T10:33:11.647Z,18.10
2019-03-29T10:37:16.926Z,17.80
2019-03-29T10:41:22.685Z,18.20
2019-03-29T10:45:28.355Z,18.30
2019-03-29T10:49:33.693Z,19.90
2019-03-29T10:53:39.045Z,21.20
2019-03-29T10:57:44.409Z,24.10
2019-03-29T11:01:50.864Z,27.60
2019-03-29T11:05:56.294Z,29.70
2019-03-29T11:10:01.654Z,27.20
2019-03-29T11:14:07.256Z,26.20
2019-03-29T11:18:12.518Z,27.10
2019-03-29T11:22:17.765Z,26.40
2019-03-29T11:26:23.043Z,24.70
2019-03-29T11:30:41.545Z,24.80
2019-03-29T11:34:35.803Z,23.00
2019-03-29T11:38:41.071Z,21.70
2019-03-29T11:42:47.095Z,20.10
2019-03-29T11:46:55.702Z,22.50
2019-03-29T11:51:02.533Z,23.40
2019-03-29T11:55:07.942Z,25.00
2019-03-29T11:59:13.284Z,25.90
2019-03-29T12:03:18.690Z,26.50
2019-03-29T12:07:24.177Z,25.50
2019-03-29T12:11:31.508Z,23.10
2019-03-29T12:15:38.594Z,21.20
2019-03-29T12:19:43.854Z,19.10
2019-03-29T12:23:49.173Z,16.80
2019-03-29T12:27:54.450Z,15.90
2019-03-29T12:31:59.729Z,15.70
2019-03-29T12:36:05.148Z,15.60
2019-03-29T12:40:10.559Z,14.80
2019-03-29T12:44:15.959Z,14.40
2019-03-29T12:48:21.220Z,14.30
2019-03-29T12:52:26.771Z,14.30
2019-03-29T12:56:32.039Z,14.40
2019-03-29T13:00:38.282Z,13.80
2019-03-29T13:04:46.867Z,13.60
2019-03-29T13:08:51.910Z,13.50
2019-03-29T13:13:00.566Z,13.40
2019-03-29T13:17:05.478Z,13.20
2019-03-29T13:21:11.789Z,13.40
2019-03-29T13:25:17.134Z,13.70
2019-03-29T13:29:22.477Z,13.80
2019-03-29T13:33:27.729Z,13.70
2019-03-29T13:37:33.013Z,13.60
2019-03-29T13:41:38.306Z,13.50
2019-03-29T13:45:43.827Z,13.60
2019-03-29T13:49:49.091Z,13.80
2019-03-29T13:53:54.463Z,13.80
2019-03-29T13:57:59.734Z,13.70
2019-03-29T14:02:05.385Z,13.50
2019-03-29T14:06:10.658Z,13.40
2019-03-29T14:10:16.078Z,13.30
2019-03-29T14:14:22.190Z,13.20
2019-03-29T14:18:27.561Z,13.30
2019-03-29T14:22:32.995Z,13.50
2019-03-29T14:26:38.591Z,13.70
2019-03-29T14:30:43.925Z,13.80
2019-03-29T14:34:49.254Z,13.80
2019-03-29T14:38:55.437Z,13.80
2019-03-29T14:43:00.993Z,13.70
2019-03-29T14:47:07.616Z,13.70
2019-03-29T14:51:13.029Z,13.60
2019-03-29T14:55:18.574Z,13.50
2019-03-29T14:59:23.842Z,13.60
2019-03-29T15:03:29.325Z,13.60
2019-03-29T15:07:35.017Z,13.60
2019-03-29T15:11:40.774Z,13.60
2019-03-29T15:15:46.103Z,13.60
2019-03-29T15:19:51.378Z,13.50
2019-03-29T15:23:56.715Z,13.40
2019-03-29T15:28:02.037Z,13.40
2019-03-29T15:32:07.302Z,13.40
2019-03-29T15:36:12.817Z,13.50
2019-03-29T15:40:18.287Z,13.40
2019-03-29T15:44:23.794Z,13.40
2019-03-29T15:48:29.531Z,13.30
2019-03-29T15:52:34.830Z,13.30
2019-03-29T15:56:40.409Z,13.30
2019-03-29T16:00:47.040Z,13.30
2019-03-29T16:04:52.493Z,13.20
2019-03-29T16:09:00.170Z,13.20
2019-03-29T16:13:05.506Z,13.20
2019-03-29T16:17:12.246Z,13.20
2019-03-29T16:21:17.789Z,13.20
2019-03-29T16:25:23.369Z,13.10
2019-03-29T16:29:28.749Z,13.20
2019-03-29T16:33:34.173Z,13.10
2019-03-29T16:37:39.445Z,13.00
2019-03-29T16:41:44.786Z,12.90
2019-03-29T16:45:50.075Z,12.90
2019-03-29T16:49:55.393Z,12.80
2019-03-29T16:54:00.680Z,12.70
2019-03-29T16:58:05.949Z,12.60
2019-03-29T17:02:11.234Z,12.50
2019-03-29T17:06:16.524Z,12.30
2019-03-29T17:10:21.788Z,12.20
2019-03-29T17:14:27.075Z,12.00
2019-03-29T17:18:32.354Z,11.70
2019-03-29T17:22:37.780Z,11.50
2019-03-29T17:26:43.149Z,11.30
2019-03-29T17:30:50.066Z,11.00
2019-03-29T17:34:55.687Z,10.80
2019-03-29T17:39:03.621Z,10.50
2019-03-29T17:43:10.191Z,10.30
2019-03-29T17:47:16.833Z,10.20
2019-03-29T17:51:22.211Z,10.10
2019-03-29T17:55:27.802Z,9.90
2019-03-29T17:59:33.719Z,9.80
2019-03-29T18:03:41.161Z,9.60
2019-03-29T18:07:46.469Z,9.30
2019-03-29T18:11:52.211Z,9.00
2019-03-29T18:15:57.671Z,8.80
2019-03-29T18:20:04.953Z,8.60
2019-03-29T18:24:10.582Z,8.40
2019-03-29T18:28:15.889Z,8.20
2019-03-29T18:32:21.180Z,8.10
2019-03-29T18:36:26.544Z,8.00
2019-03-29T18:40:32.217Z,7.90
2019-03-29T18:44:37.546Z,7.80
2019-03-29T18:48:42.829Z,7.70
2019-03-29T18:52:48.223Z,7.60
2019-03-29T18:56:53.211Z,7.40
2019-03-29T19:00:58.467Z,7.20
2019-03-29T19:05:04.302Z,7.10
2019-03-29T19:09:09.466Z,7.00
2019-03-29T19:13:14.466Z,6.80
2019-03-29T19:17:19.533Z,6.70
2019-03-29T19:21:25.745Z,6.80
2019-03-29T19:25:33.202Z,6.70
2019-03-29T19:29:38.562Z,6.70
2019-03-29T19:33:43.841Z,6.60
2019-03-29T19:37:48.846Z,6.60
2019-03-29T19:41:53.850Z,6.40
2019-03-29T19:45:58.830Z,6.50
2019-03-29T19:50:05.327Z,6.50
2019-03-29T19:54:10.444Z,6.60
2019-03-29T19:58:15.507Z,6.60
2019-03-29T20:02:20.900Z,6.80
2019-03-29T20:06:25.917Z,6.80
2019-03-29T20:10:31.181Z,6.70
2019-03-29T20:14:36.129Z,6.70
2019-03-29T20:18:41.193Z,6.60
2019-03-29T20:22:47.397Z,6.50
2019-03-29T20:26:52.666Z,6.40
2019-03-29T20:30:57.890Z,6.40
2019-03-29T20:35:04.758Z,6.40
2019-03-29T20:39:10.402Z,6.40
2019-03-29T20:43:16.094Z,6.30
2019-03-29T20:47:21.636Z,6.10
2019-03-29T20:51:27.388Z,6.10
2019-03-29T20:55:32.701Z,6.10
2019-03-29T20:59:38.074Z,6.00
2019-03-29T21:03:44.002Z,6.20
2019-03-29T21:07:49.388Z,6.30
2019-03-29T21:11:54.381Z,6.20
2019-03-29T21:15:59.382Z,6.10
2019-03-29T21:20:09.214Z,5.90
2019-03-29T21:24:14.254Z,5.70
2019-03-29T21:28:19.299Z,5.70
2019-03-29T21:32:24.414Z,5.70
2019-03-29T21:36:29.439Z,5.70
2019-03-29T21:40:34.586Z,5.80
2019-03-29T21:44:39.656Z,5.90
2019-03-29T21:48:44.659Z,6.10
2019-03-29T21:52:50.074Z,6.10
2019-03-29T21:56:55.250Z,6.00
2019-03-29T22:01:00.309Z,5.90
2019-03-29T22:05:10.055Z,5.80
2019-03-29T22:09:13.769Z,5.60
2019-03-29T22:13:18.906Z,5.40
2019-03-29T22:17:24.000Z,5.20
2019-03-29T22:21:29.010Z,5.10
2019-03-29T22:25:34.066Z,5.00
2019-03-29T22:29:39.268Z,5.00
2019-03-29T22:33:44.353Z,4.90
2019-03-29T22:37:49.343Z,4.90
2019-03-29T22:41:54.728Z,4.90
2019-03-29T22:46:00.943Z,4.70
2019-03-29T22:50:07.726Z,4.70
2019-03-29T22:54:13.005Z,4.60
2019-03-29T22:58:18.542Z,4.50
2019-03-29T23:02:23.586Z,4.40
2019-03-29T23:06:28.649Z,4.40
2019-03-29T23:10:33.651Z,4.50
2019-03-29T23:14:38.661Z,4.40
2019-03-29T23:18:43.661Z,4.40
2019-03-29T23:22:48.637Z,4.30
2019-03-29T23:26:53.642Z,4.30
2019-03-29T23:30:58.706Z,4.30
2019-03-29T23:35:04.940Z,4.30
2019-03-29T23:39:10.561Z,4.20
2019-03-29T23:43:15.551Z,4.10
2019-03-29T23:47:20.556Z,4.00
2019-03-29T23:51:25.647Z,3.90
2019-03-29T23:55:30.637Z,3.80
2019-03-29T23:59:35.645Z,3.70
